Time;durP1;ratioP1;P1;durP2;ratioP2;P2;SDS_P1;SDS_P2;PMS_P1;PMS_P2;Temp;Humidity;BMP_temperature;BMP_pressure;BME280_temperature;BME280_humidity;BME280_pressure;Samples;Min_cycle;Max_cycle;Signal;HPM_P1;HPM_P2
2021/04/30 00:01:31;;;;;;;37.80;21.88;;;;;;;9.95;100.00;100077.78;5030144;28;20031;-76
2021/04/30 00:03:56;;;;;;;33.50;21.17;;;;;;;9.94;100.00;100076.22;5013562;28;20043;-77
2021/04/30 00:06:22;;;;;;;35.65;20.85;;;;;;;10.01;100.00;100076.31;5030227;28;20029;-77
2021/04/30 00:08:47;;;;;;;34.30;20.35;;;;;;;9.68;100.00;100085.09;5009781;28;20030;-77
2021/04/30 00:11:13;;;;;;;36.25;21.08;;;;;;;9.88;100.00;100078.47;5028813;28;20056;-77
2021/04/30 00:13:39;;;;;;;34.55;21.17;;;;;;;10.00;100.00;100085.53;5030852;28;20029;-77
2021/04/30 00:16:06;;;;;;;39.28;21.77;;;;;;;9.99;100.00;100092.81;5036059;28;20400;-77
2021/04/30 00:18:32;;;;;;;38.08;22.13;;;;;;;10.02;100.00;100091.34;5030079;28;20494;-76
2021/04/30 00:20:59;;;;;;;37.58;21.25;;;;;;;9.93;100.00;100099.66;5012350;28;20025;-78
2021/04/30 00:23:26;;;;;;;35.75;21.92;;;;;;;9.77;100.00;100101.75;5040691;28;20168;-77
2021/04/30 00:25:53;;;;;;;37.28;21.92;;;;;;;9.82;100.00;100108.72;5029833;28;20494;-76
2021/04/30 00:28:20;;;;;;;36.50;21.15;;;;;;;9.76;100.00;100107.47;5028544;28;20029;-77
2021/04/30 00:30:46;;;;;;;35.63;21.42;;;;;;;9.81;100.00;100107.19;5031134;28;20040;-77
2021/04/30 00:33:11;;;;;;;41.72;22.15;;;;;;;9.84;100.00;100120.66;5025649;28;20026;-78
2021/04/30 00:35:37;;;;;;;38.60;22.90;;;;;;;9.85;100.00;100119.53;5030297;28;20029;-78
2021/04/30 00:38:03;;;;;;;39.38;23.17;;;;;;;9.92;100.00;100119.63;5028342;28;20033;-76
2021/04/30 00:40:28;;;;;;;40.50;22.33;;;;;;;9.77;100.00;100120.56;5029599;28;20033;-76
2021/04/30 00:42:54;;;;;;;37.00;23.10;;;;;;;9.81;100.00;100128.69;5030520;28;20025;-76
2021/04/30 00:45:23;;;;;;;38.55;22.73;;;;;;;9.93;100.00;100129.25;5026119;28;20045;-77
2021/04/30 00:47:48;;;;;;;39.70;23.58;;;;;;;9.93;100.00;100128.47;5024146;28;20041;-77
2021/04/30 00:50:14;;;;;;;38.28;22.92;;;;;;;9.99;100.00;100130.47;5029164;28;20019;-77
2021/04/30 00:52:40;;;;;;;40.13;23.52;;;;;;;9.97;100.00;100132.75;5030812;28;20083;-77
2021/04/30 00:55:08;;;;;;;42.47;24.00;;;;;;;9.88;100.00;100134.94;5026392;28;20069;-76
2021/04/30 00:57:35;;;;;;;42.17;24.13;;;;;;;10.07;100.00;100144.03;5028824;28;20029;-77
2021/04/30 01:00:01;;;;;;;41.90;25.05;;;;;;;10.01;100.00;100146.25;5027770;28;20030;-77
2021/04/30 01:02:26;;;;;;;43.50;25.27;;;;;;;9.91;100.00;100149.59;5027638;28;20044;-77
2021/04/30 01:04:52;;;;;;;47.88;25.73;;;;;;;9.80;100.00;100154.00;5029976;28;20136;-76
2021/04/30 01:07:18;;;;;;;47.17;26.02;;;;;;;9.87;100.00;100159.50;5036549;28;20033;-77
2021/04/30 01:09:44;;;;;;;43.47;26.23;;;;;;;9.83;100.00;100154.06;5026918;28;20116;-77
2021/04/30 01:12:11;;;;;;;42.17;24.90;;;;;;;9.87;100.00;100162.19;5019098;28;20072;-77
2021/04/30 01:14:37;;;;;;;44.55;26.65;;;;;;;9.96;100.00;100160.03;5030243;28;20112;-77
2021/04/30 01:17:03;;;;;;;46.90;27.13;;;;;;;10.00;100.00;100169.72;5009707;28;20120;-77
2021/04/30 01:19:30;;;;;;;48.42;27.58;;;;;;;10.10;100.00;100173.72;5031219;28;20437;-77
2021/04/30 01:21:56;;;;;;;48.80;26.42;;;;;;;10.01;100.00;100170.47;5032866;28;20041;-77
2021/04/30 01:24:24;;;;;;;48.78;26.88;;;;;;;9.95;100.00;100177.28;5013410;28;20026;-77
2021/04/30 01:26:49;;;;;;;48.17;26.92;;;;;;;9.66;100.00;100186.03;5014307;28;20025;-78
2021/04/30 01:29:15;;;;;;;49.47;27.95;;;;;;;9.64;100.00;100193.72;5025544;28;20053;-76
2021/04/30 01:31:42;;;;;;;46.22;26.40;;;;;;;9.42;100.00;100199.88;5034315;28;20037;-76
2021/04/30 01:34:08;;;;;;;49.08;27.55;;;;;;;9.59;100.00;100199.38;5029475;28;20086;-76
2021/04/30 01:36:33;;;;;;;52.00;28.02;;;;;;;9.71;100.00;100201.91;5032754;28;20041;-75
2021/04/30 01:39:02;;;;;;;51.35;29.13;;;;;;;9.88;100.00;100199.50;5033094;28;20106;-77
2021/04/30 01:41:28;;;;;;;48.28;27.95;;;;;;;9.99;100.00;100196.94;5033632;28;20509;-75
2021/04/30 01:43:53;;;;;;;48.05;28.25;;;;;;;9.98;100.00;100208.84;5013591;28;20053;-76
2021/04/30 01:46:19;;;;;;;52.03;28.90;;;;;;;9.85;100.00;100210.94;5032699;28;20041;-76
2021/04/30 01:48:44;;;;;;;53.58;29.85;;;;;;;9.85;100.00;100210.94;5032845;28;20035;-76
2021/04/30 01:51:10;;;;;;;51.33;29.10;;;;;;;9.85;100.00;100215.56;5015569;28;20037;-77
2021/04/30 01:53:38;;;;;;;52.85;29.15;;;;;;;9.90;100.00;100226.78;5013166;28;20045;-77
2021/04/30 01:56:11;;;;;;;53.42;28.98;;;;;;;9.93;100.00;100222.59;5026931;28;20041;-77
2021/04/30 01:58:37;;;;;;;50.47;29.02;;;;;;;9.91;100.00;100228.34;5028324;28;20021;-76
2021/04/30 02:01:08;;;;;;;51.60;29.40;;;;;;;9.98;100.00;100233.06;5030652;28;20389;-76
2021/04/30 02:03:34;;;;;;;52.30;29.48;;;;;;;9.89;100.00;100229.84;5015044;28;20029;-76
2021/04/30 02:05:59;;;;;;;52.38;29.40;;;;;;;9.96;100.00;100238.03;5033761;28;20040;-76
2021/04/30 02:08:25;;;;;;;52.17;28.95;;;;;;;9.95;100.00;100247.22;5032308;28;20051;-75
2021/04/30 02:10:51;;;;;;;50.47;28.15;;;;;;;9.90;100.00;100239.47;5033148;28;20537;-76
2021/04/30 02:13:19;;;;;;;50.03;28.08;;;;;;;9.63;100.00;100245.91;5030775;28;20113;-77
2021/04/30 02:15:48;;;;;;;48.75;27.83;;;;;;;9.66;100.00;100240.59;5032096;28;20048;-76
2021/04/30 02:18:14;;;;;;;50.70;28.70;;;;;;;9.79;100.00;100252.72;5032032;28;20083;-76
2021/04/30 02:20:41;;;;;;;46.22;27.77;;;;;;;9.62;100.00;100247.81;5026749;28;20041;-76
2021/04/30 02:23:07;;;;;;;51.45;28.40;;;;;;;9.51;100.00;100259.53;5028815;28;20112;-76
2021/04/30 02:25:33;;;;;;;48.03;26.80;;;;;;;9.77;100.00;100256.94;5027642;28;20561;-76
2021/04/30 02:28:01;;;;;;;44.97;27.67;;;;;;;9.87;100.00;100254.41;5034693;28;20061;-76
2021/04/30 02:30:29;;;;;;;49.25;28.25;;;;;;;9.81;100.00;100257.75;5027494;28;20034;-76
2021/04/30 02:32:55;;;;;;;50.67;27.83;;;;;;;9.81;100.00;100265.84;5029596;28;20417;-76
2021/04/30 02:35:25;;;;;;;49.65;28.60;;;;;;;9.85;100.00;100263.97;5026873;28;20160;-77
2021/04/30 02:37:51;;;;;;;49.85;27.45;;;;;;;9.88;100.00;100265.94;5031462;28;20034;-76
2021/04/30 02:40:20;;;;;;;46.42;26.77;;;;;;;9.86;100.00;100262.81;5032666;28;20433;-76
2021/04/30 02:42:45;;;;;;;43.75;25.80;;;;;;;9.64;100.00;100274.38;5013839;28;20030;-76
2021/04/30 02:45:14;;;;;;;45.70;27.15;;;;;;;9.71;100.00;100269.09;5022873;28;20052;-77
2021/04/30 02:47:41;;;;;;;45.53;26.35;;;;;;;9.74;100.00;100266.47;5014822;28;20502;-77
2021/04/30 02:50:07;;;;;;;45.88;26.25;;;;;;;9.83;100.00;100272.38;5013684;28;20032;-76
2021/04/30 02:52:33;;;;;;;44.58;25.25;;;;;;;9.83;100.00;100268.94;5032751;28;20034;-76
2021/04/30 02:54:59;;;;;;;45.38;25.48;;;;;;;9.74;100.00;100279.13;5023243;28;20075;-76
2021/04/30 02:57:25;;;;;;;44.08;24.50;;;;;;;9.84;100.00;100273.94;5020386;28;20112;-77
2021/04/30 02:59:51;;;;;;;49.17;26.05;;;;;;;9.72;100.00;100281.41;5027023;28;20025;-77
2021/04/30 03:02:17;;;;;;;44.90;25.38;;;;;;;9.65;100.00;100281.28;5030830;28;20037;-77
2021/04/30 03:04:42;;;;;;;44.45;24.15;;;;;;;9.45;100.00;100282.44;5032638;28;20033;-76
2021/04/30 03:07:08;;;;;;;40.60;24.38;;;;;;;9.52;100.00;100286.06;5031458;28;20382;-77
2021/04/30 03:09:34;;;;;;;38.88;24.08;;;;;;;9.55;100.00;100287.25;5028339;28;20405;-77
2021/04/30 03:12:00;;;;;;;37.88;23.05;;;;;;;9.59;100.00;100299.63;5011268;28;20048;-76
2021/04/30 03:14:26;;;;;;;38.53;22.90;;;;;;;9.67;100.00;100295.16;5022831;28;20045;-77
2021/04/30 03:16:51;;;;;;;39.35;23.05;;;;;;;9.61;100.00;100304.63;5027308;28;20029;-77
2021/04/30 03:19:17;;;;;;;40.70;22.02;;;;;;;9.73;100.00;100304.47;5016124;28;20081;-77
2021/04/30 03:21:43;;;;;;;38.35;22.13;;;;;;;9.79;100.00;100313.81;5031745;28;20033;-76
2021/04/30 03:24:09;;;;;;;37.53;23.40;;;;;;;9.75;100.00;100310.28;5032616;28;20036;-76
2021/04/30 03:26:35;;;;;;;33.47;20.60;;;;;;;9.69;100.00;100317.09;5010817;28;20044;-76
2021/04/30 03:29:01;;;;;;;35.58;20.98;;;;;;;9.79;100.00;100316.50;5031180;28;20084;-76
2021/04/30 03:31:27;;;;;;;33.13;20.83;;;;;;;9.72;100.00;100324.41;5004458;28;20046;-76
2021/04/30 03:33:53;;;;;;;36.97;21.73;;;;;;;9.61;100.00;100323.44;5024010;28;20520;-76
2021/04/30 03:36:19;;;;;;;37.33;21.92;;;;;;;9.69;100.00;100325.94;5030230;28;20025;-76
2021/04/30 03:38:46;;;;;;;36.50;22.08;;;;;;;9.49;100.00;100335.13;5024542;28;20030;-76
2021/04/30 03:41:12;;;;;;;38.38;22.13;;;;;;;9.42;100.00;100326.94;5027082;28;20029;-75
2021/04/30 03:43:37;;;;;;;39.22;22.40;;;;;;;9.59;100.00;100341.84;5030260;28;20032;-77
2021/04/30 03:46:03;;;;;;;37.80;21.83;;;;;;;9.57;100.00;100342.22;5031599;28;20068;-75
2021/04/30 03:48:29;;;;;;;38.05;21.67;;;;;;;9.62;100.00;100341.91;5018700;28;20096;-77
2021/04/30 03:50:54;;;;;;;36.92;22.20;;;;;;;9.50;100.00;100352.84;5032047;28;20033;-77
2021/04/30 03:53:21;;;;;;;36.17;21.23;;;;;;;9.34;100.00;100356.72;5031562;28;20065;-77
2021/04/30 03:55:47;;;;;;;37.65;21.67;;;;;;;9.38;100.00;100347.59;5032312;28;20224;-77
2021/04/30 03:58:12;;;;;;;36.50;21.40;;;;;;;9.41;100.00;100356.84;5021777;28;20041;-75
2021/04/30 04:00:38;;;;;;;37.28;21.77;;;;;;;9.54;100.00;100367.09;5031529;28;20037;-77
2021/04/30 04:03:03;;;;;;;40.03;22.58;;;;;;;9.34;100.00;100362.09;5021894;28;20033;-77
2021/04/30 04:05:29;;;;;;;38.00;22.10;;;;;;;9.41;100.00;100368.38;5006424;28;20105;-77
2021/04/30 04:07:54;;;;;;;38.75;22.05;;;;;;;9.54;100.00;100374.41;5015656;28;20040;-78
2021/04/30 04:10:20;;;;;;;36.97;22.35;;;;;;;9.61;100.00;100378.00;5032163;28;20521;-77
2021/04/30 04:12:45;;;;;;;37.83;22.00;;;;;;;9.41;100.00;100387.19;5033964;28;20037;-78
2021/04/30 04:15:11;;;;;;;39.88;22.02;;;;;;;9.52;100.00;100384.72;5005411;28;20068;-78
2021/04/30 04:17:37;;;;;;;37.85;22.00;;;;;;;9.59;100.00;100380.28;5020551;28;20462;-77
2021/04/30 04:20:04;;;;;;;34.42;20.55;;;;;;;9.48;100.00;100386.56;5030922;28;20100;-77
2021/04/30 04:22:30;;;;;;;32.80;20.92;;;;;;;9.50;100.00;100387.00;5026955;28;20116;-77
2021/04/30 04:24:55;;;;;;;37.60;20.60;;;;;;;9.52;100.00;100387.41;5020257;28;20119;-76
2021/04/30 04:27:21;;;;;;;35.47;20.02;;;;;;;9.61;100.00;100399.50;5025169;28;20512;-77
2021/04/30 04:29:47;;;;;;;35.28;20.13;;;;;;;9.50;100.00;100397.75;5030500;28;20021;-76
2021/04/30 04:32:13;;;;;;;33.30;20.55;;;;;;;9.30;100.00;100404.22;5030953;28;20065;-78
2021/04/30 04:34:39;;;;;;;38.88;19.88;;;;;;;9.47;100.00;100401.91;5014632;28;20079;-76
2021/04/30 04:37:05;;;;;;;36.08;20.92;;;;;;;9.40;100.00;100409.84;5031255;28;20053;-78
2021/04/30 04:39:32;;;;;;;35.58;20.40;;;;;;;9.53;100.00;100411.25;5014087;28;20565;-77
2021/04/30 04:41:58;;;;;;;36.83;21.17;;;;;;;9.65;100.00;100421.88;5035215;28;20428;-78
2021/04/30 04:44:24;;;;;;;34.92;21.38;;;;;;;9.64;100.00;100414.16;5040143;28;20033;-78
2021/04/30 04:46:49;;;;;;;37.05;20.63;;;;;;;9.64;100.00;100419.53;5014904;28;20095;-77
2021/04/30 04:49:14;;;;;;;33.40;20.50;;;;;;;9.65;100.00;100424.56;5028390;28;20049;-77
2021/04/30 04:51:40;;;;;;;33.33;20.92;;;;;;;9.59;100.00;100423.28;5024825;28;20052;-76
2021/04/30 04:54:08;;;;;;;37.10;21.02;;;;;;;9.65;100.00;100426.47;5016038;28;20022;-77
2021/04/30 04:56:34;;;;;;;33.58;20.55;;;;;;;9.64;100.00;100431.06;5031397;28;20030;-78
2021/04/30 04:58:59;;;;;;;35.28;20.55;;;;;;;9.83;100.00;100430.28;5029142;28;20030;-78
2021/04/30 05:01:25;;;;;;;38.88;21.73;;;;;;;9.69;100.00;100427.31;5026990;28;20386;-78
2021/04/30 05:03:51;;;;;;;38.00;20.48;;;;;;;9.73;100.00;100439.69;5008168;28;20033;-78
2021/04/30 05:06:17;;;;;;;36.03;21.23;;;;;;;9.81;100.00;100429.88;5018341;28;20044;-78
2021/04/30 05:08:43;;;;;;;39.03;21.30;;;;;;;9.59;100.00;100438.63;5021362;28;20033;-78
2021/04/30 05:11:09;;;;;;;33.08;21.10;;;;;;;9.63;100.00;100440.25;5029413;28;20033;-77
2021/04/30 05:13:35;;;;;;;35.72;21.05;;;;;;;9.67;100.00;100446.50;5032859;28;20116;-75
2021/04/30 05:16:02;;;;;;;34.35;20.60;;;;;;;9.67;100.00;100449.19;5031520;28;20025;-74
2021/04/30 05:18:28;;;;;;;35.83;21.13;;;;;;;9.73;100.00;100450.47;5026649;28;20029;-78
2021/04/30 05:20:54;;;;;;;37.80;21.50;;;;;;;9.88;100.00;100459.56;5028995;28;20095;-77
2021/04/30 05:23:21;;;;;;;36.17;21.50;;;;;;;9.88;100.00;100454.19;5028637;28;20522;-78
2021/04/30 05:25:48;;;;;;;33.22;20.92;;;;;;;9.68;100.00;100466.84;5006178;28;20038;-76
2021/04/30 05:28:14;;;;;;;32.47;19.95;;;;;;;9.54;100.00;100473.84;5030311;28;20083;-78
2021/04/30 05:30:40;;;;;;;33.47;19.95;;;;;;;9.68;100.00;100466.84;5027546;28;20458;-78
2021/04/30 05:33:06;;;;;;;39.13;21.05;;;;;;;9.65;100.00;100481.00;5027686;28;20057;-76
2021/04/30 05:35:32;;;;;;;34.90;20.33;;;;;;;9.63;100.00;100469.06;5030354;28;20116;-78
2021/04/30 05:37:58;;;;;;;33.63;20.33;;;;;;;9.84;100.00;100472.97;5006670;28;20436;-78
2021/04/30 05:40:24;;;;;;;35.67;21.05;;;;;;;9.90;100.00;100476.13;5018053;28;20022;-77
2021/04/30 05:42:50;;;;;;;36.08;20.85;;;;;;;9.92;100.00;100476.56;5030958;28;20515;-78
2021/04/30 05:45:16;;;;;;;35.25;20.20;;;;;;;10.00;100.00;100480.94;5031511;28;20029;-76
2021/04/30 05:47:42;;;;;;;35.53;20.85;;;;;;;9.95;100.00;100476.63;5031162;28;20022;-75
2021/04/30 05:50:08;;;;;;;32.50;19.92;;;;;;;9.75;100.00;100485.84;5025438;28;20033;-78
2021/04/30 05:52:34;;;;;;;33.25;19.55;;;;;;;9.92;100.00;100479.25;5006546;28;20498;-78
2021/04/30 05:55:00;;;;;;;32.33;19.25;;;;;;;9.98;100.00;100491.28;5025781;28;20116;-77
2021/04/30 05:57:26;;;;;;;32.35;19.75;;;;;;;9.97;100.00;100497.78;5005697;28;20047;-77
2021/04/30 05:59:51;;;;;;;32.50;20.27;;;;;;;10.04;100.00;100492.56;5013661;28;20034;-76
2021/04/30 06:02:17;;;;;;;32.35;19.92;;;;;;;10.01;100.00;100495.94;5030743;28;20030;-77
2021/04/30 06:04:42;;;;;;;31.05;18.75;;;;;;;10.06;100.00;100502.97;5025310;28;20076;-77
2021/04/30 06:07:07;;;;;;;28.85;18.00;;;;;;;10.21;100.00;100507.50;5020783;28;20116;-78
2021/04/30 06:09:33;;;;;;;30.48;18.50;;;;;;;10.23;100.00;100507.94;5013162;28;20033;-78
2021/04/30 06:11:58;;;;;;;29.63;17.95;;;;;;;10.31;100.00;100507.72;5028644;28;20036;-77
2021/04/30 06:14:30;;;;;;;32.08;18.48;;;;;;;10.38;100.00;100505.16;5029768;28;20401;-77
2021/04/30 06:16:59;;;;;;;30.65;18.60;;;;;;;10.61;100.00;100516.72;5028725;28;20113;-78
2021/04/30 06:19:24;;;;;;;31.73;18.85;;;;;;;10.62;100.00;100520.22;5009195;28;20116;-77
2021/04/30 06:21:51;;;;;;;31.52;19.90;;;;;;;10.67;100.00;100533.38;5026580;28;20116;-77
2021/04/30 06:24:16;;;;;;;29.70;18.50;;;;;;;10.58;100.00;100530.13;5028249;28;20401;-77
2021/04/30 06:26:42;;;;;;;30.90;19.00;;;;;;;10.42;100.00;100529.44;5020972;28;20049;-78
2021/04/30 06:29:08;;;;;;;31.10;18.60;;;;;;;10.34;100.00;100533.91;5028269;28;20040;-78
2021/04/30 06:31:35;;;;;;;30.45;18.75;;;;;;;10.65;100.00;100525.66;5012707;28;20049;-77
2021/04/30 06:34:00;;;;;;;32.08;19.42;;;;;;;10.62;100.00;100539.06;5027621;28;20038;-78
2021/04/30 06:36:26;;;;;;;32.75;19.77;;;;;;;10.56;100.00;100554.72;5009583;28;20133;-78
2021/04/30 06:38:51;;;;;;;32.30;19.33;;;;;;;10.45;100.00;100545.66;5028407;28;20410;-77
2021/04/30 06:41:17;;;;;;;29.70;18.17;;;;;;;10.39;100.00;100563.25;5030676;28;20065;-77
2021/04/30 06:43:42;;;;;;;28.90;18.27;;;;;;;10.06;100.00;100564.84;5011532;28;20088;-77
2021/04/30 06:46:08;;;;;;;26.02;17.05;;;;;;;10.13;100.00;100571.19;5028576;28;20045;-77
2021/04/30 06:48:33;;;;;;;30.17;18.67;;;;;;;10.34;100.00;100565.44;5024996;28;21240;-77
2021/04/30 06:50:59;;;;;;;26.83;17.20;;;;;;;10.50;100.00;100568.84;5010816;28;20026;-78
2021/04/30 06:53:25;;;;;;;30.25;17.05;;;;;;;10.71;100.00;100572.69;5007965;28;20030;-77
2021/04/30 06:55:50;;;;;;;26.17;17.55;;;;;;;10.74;100.00;100574.66;5027649;28;20032;-77
2021/04/30 06:58:16;;;;;;;26.42;16.92;;;;;;;10.81;100.00;100577.50;5023244;28;20031;-77
2021/04/30 07:00:42;;;;;;;26.30;17.80;;;;;;;11.07;100.00;100586.81;5025070;28;20034;-79
2021/04/30 07:03:07;;;;;;;28.95;18.02;;;;;;;11.14;100.00;100582.31;5010971;28;20033;-78
2021/04/30 07:05:33;;;;;;;31.50;17.98;;;;;;;11.16;99.81;100579.25;5027203;28;20374;-79
2021/04/30 07:08:01;;;;;;;29.77;18.13;;;;;;;11.22;97.71;100588.59;5025468;28;20034;-79
2021/04/30 07:10:31;;;;;;;26.45;17.30;;;;;;;11.08;98.78;100591.84;5027896;28;20029;-79
2021/04/30 07:12:57;;;;;;;28.63;17.17;;;;;;;11.09;98.42;100593.38;5028739;28;20397;-79
2021/04/30 07:15:23;;;;;;;25.58;16.60;;;;;;;11.08;99.32;100591.03;5011273;28;20112;-79
2021/04/30 07:17:48;;;;;;;27.85;17.17;;;;;;;11.17;99.05;100607.78;5027635;28;20034;-79
2021/04/30 07:20:14;;;;;;;27.35;17.52;;;;;;;11.21;98.18;100608.59;5024310;28;20112;-78
2021/04/30 07:22:40;;;;;;;28.23;16.75;;;;;;;11.24;97.76;100610.56;5027122;28;20520;-79
2021/04/30 07:25:06;;;;;;;25.60;15.90;;;;;;;11.24;97.77;100605.97;5026239;28;20124;-79
2021/04/30 07:27:32;;;;;;;23.23;15.88;;;;;;;11.21;96.20;100608.59;5028734;28;20107;-77
2021/04/30 07:29:57;;;;;;;24.30;16.25;;;;;;;11.17;96.32;100607.78;5028775;28;20860;-79
2021/04/30 07:32:23;;;;;;;22.52;15.80;;;;;;;11.09;97.08;100622.25;5011185;28;20082;-78
2021/04/30 07:34:49;;;;;;;23.58;16.20;;;;;;;11.09;96.89;100619.56;5008713;28;20485;-79
2021/04/30 07:37:14;;;;;;;24.73;16.35;;;;;;;11.10;97.02;100623.81;5028103;28;20074;-78
2021/04/30 07:39:41;;;;;;;22.30;15.77;;;;;;;11.21;96.08;100627.44;5026513;28;20040;-78
2021/04/30 07:42:07;;;;;;;27.17;14.98;;;;;;;10.96;95.76;100627.03;5028144;28;20033;-78
2021/04/30 07:44:33;;;;;;;23.20;15.82;;;;;;;11.13;95.97;100637.34;5007444;28;20052;-78
2021/04/30 07:46:59;;;;;;;22.27;15.55;;;;;;;11.00;96.64;100640.56;5027994;28;20029;-77
2021/04/30 07:49:45;;;;;;;24.70;16.23;;;;;;;11.17;96.27;100640.13;5028096;28;20442;-78
2021/04/30 07:52:11;;;;;;;22.30;15.73;;;;;;;10.80;96.54;100637.13;4950056;28;20043;-78
2021/04/30 07:54:36;;;;;;;23.85;15.80;;;;;;;10.93;97.19;100632.34;4952980;28;20077;-79
2021/04/30 07:57:04;;;;;;;26.35;15.80;;;;;;;11.19;97.39;100635.16;4929923;28;20039;-79
2021/04/30 07:59:30;;;;;;;23.27;15.07;;;;;;;11.32;96.16;100637.31;4936263;28;20035;-77
2021/04/30 08:01:56;;;;;;;22.55;14.75;;;;;;;11.52;95.32;100635.28;4944663;28;20567;-79
2021/04/30 08:04:21;;;;;;;22.13;15.00;;;;;;;11.57;94.43;100635.78;4948971;28;20046;-77
2021/04/30 08:06:47;;;;;;;24.70;14.88;;;;;;;11.67;94.73;100647.91;4947367;28;20454;-80
2021/04/30 08:09:12;;;;;;;21.08;15.05;;;;;;;11.69;93.00;100656.44;4946285;28;20038;-78
2021/04/30 08:11:38;;;;;;;23.52;14.40;;;;;;;11.65;92.81;100661.75;4947970;28;20046;-79
2021/04/30 08:14:07;;;;;;;19.65;13.57;;;;;;;11.46;94.18;100663.69;4948269;28;20046;-79
2021/04/30 08:16:33;;;;;;;18.27;12.85;;;;;;;11.58;93.10;100661.63;4934667;28;20106;-77
2021/04/30 08:19:00;;;;;;;17.38;12.18;;;;;;;11.70;92.63;100653.38;4948086;28;20039;-78
2021/04/30 08:21:26;;;;;;;18.60;12.68;;;;;;;11.72;92.84;100651.09;4947884;28;20030;-79
2021/04/30 08:23:51;;;;;;;18.08;13.05;;;;;;;11.59;92.37;100649.66;4937931;28;20419;-78
2021/04/30 08:26:17;;;;;;;17.05;12.80;;;;;;;11.80;92.10;100670.84;4952169;28;20039;-78
2021/04/30 08:28:42;;;;;;;20.35;11.70;;;;;;;11.37;90.76;100660.47;4969509;28;20409;-78
2021/04/30 08:31:08;;;;;;;18.80;12.68;;;;;;;11.72;90.97;100674.59;5027337;28;20889;-78
2021/04/30 08:33:33;;;;;;;17.63;12.00;;;;;;;11.91;89.19;100674.50;5028419;28;20112;-78
2021/04/30 08:35:59;;;;;;;20.30;11.65;;;;;;;12.11;89.31;100670.56;5028879;28;20029;-78
2021/04/30 08:38:24;;;;;;;16.50;11.27;;;;;;;12.06;90.24;100673.56;5027503;28;20029;-78
2021/04/30 08:40:50;;;;;;;15.70;11.10;;;;;;;12.14;86.92;100671.72;5029033;28;20026;-78
2021/04/30 08:43:19;;;;;;;16.27;11.80;;;;;;;12.19;85.83;100679.53;5024954;28;20034;-77
2021/04/30 08:45:45;;;;;;;14.85;10.60;;;;;;;12.31;85.62;100674.69;5029400;28;20061;-77
2021/04/30 08:48:13;;;;;;;16.48;10.75;;;;;;;12.42;84.02;100678.31;5027153;28;20462;-78
2021/04/30 08:50:41;;;;;;;15.15;10.48;;;;;;;12.11;85.72;100680.56;5028841;28;20030;-77
2021/04/30 08:53:06;;;;;;;17.35;11.23;;;;;;;12.20;84.65;100684.56;5029168;28;20562;-78
2021/04/30 08:55:32;;;;;;;15.40;10.23;;;;;;;12.07;84.64;100685.91;5021067;28;20033;-79
2021/04/30 08:57:59;;;;;;;14.45;10.48;;;;;;;12.14;85.06;100683.31;5025114;28;20557;-77
2021/04/30 09:00:25;;;;;;;16.88;10.73;;;;;;;12.21;86.72;100678.03;5027559;28;20025;-77
2021/04/30 09:02:51;;;;;;;15.05;10.55;;;;;;;12.34;86.42;100682.06;5011903;28;20725;-77
2021/04/30 09:05:25;;;;;;;16.08;11.13;;;;;;;12.38;86.95;100684.81;5006086;28;20092;-77
2021/04/30 09:07:53;;;;;;;15.38;10.93;;;;;;;12.61;86.07;100690.91;5009392;28;20091;-80
2021/04/30 09:10:19;;;;;;;15.25;10.98;;;;;;;12.62;84.14;100687.81;4994197;28;20026;-79
2021/04/30 09:13:01;;;;;;;14.50;10.68;;;;;;;12.89;84.27;100685.81;5028613;28;20060;-80
2021/04/30 09:15:27;;;;;;;14.65;10.50;;;;;;;13.13;84.65;100682.66;5019467;28;20025;-78
2021/04/30 09:17:52;;;;;;;14.75;10.95;;;;;;;13.32;83.61;100682.44;5025528;28;20044;-78
2021/04/30 09:20:18;;;;;;;17.33;11.20;;;;;;;13.34;83.42;100699.09;5027725;28;20034;-78
2021/04/30 09:22:44;;;;;;;17.05;11.25;;;;;;;13.17;83.18;100688.88;5029359;28;20034;-79
2021/04/30 09:25:12;;;;;;;12.85;10.43;;;;;;;13.25;84.68;100692.41;5008745;28;20551;-77
2021/04/30 09:27:40;;;;;;;16.08;10.52;;;;;;;13.48;83.63;100701.16;5016721;28;20079;-78
2021/04/30 09:30:25;;;;;;;14.80;10.93;;;;;;;13.52;81.32;100704.66;5017155;28;20021;-79
2021/04/30 09:33:06;;;;;;;13.77;10.57;;;;;;;13.55;81.48;100703.91;5028063;28;20041;-79
2021/04/30 09:36:01;;;;;;;12.47;10.13;;;;;;;13.58;81.67;100703.19;5027771;28;20390;-79
2021/04/30 09:38:35;;;;;;;16.70;10.23;;;;;;;13.66;80.36;100704.78;5011862;28;20283;-78
2021/04/30 09:41:00;;;;;;;12.13;9.73;;;;;;;13.63;80.04;100699.34;5032842;28;20037;-78
2021/04/30 09:43:26;;;;;;;13.45;9.65;;;;;;;14.01;74.98;100694.25;5015336;28;20022;-77
2021/04/30 09:45:52;;;;;;;15.70;9.55;;;;;;;13.79;74.51;100699.84;5014320;28;20406;-76
2021/04/30 09:48:18;;;;;;;12.30;9.75;;;;;;;13.81;74.56;100701.03;5030937;28;20037;-77
2021/04/30 09:50:44;;;;;;;12.43;9.98;;;;;;;13.73;75.72;100698.66;5027703;28;20518;-76
2021/04/30 09:53:17;;;;;;;12.45;9.18;;;;;;;13.75;74.52;100693.63;5031239;28;20179;-76
2021/04/30 09:55:44;;;;;;;13.20;9.85;;;;;;;13.41;76.88;100687.56;5028024;28;20048;-76
2021/04/30 09:58:18;;;;;;;12.93;8.70;;;;;;;13.50;75.73;100688.03;5034366;28;20026;-76
2021/04/30 10:00:46;;;;;;;11.02;8.52;;;;;;;13.62;75.69;100678.84;5017963;28;20030;-77
2021/04/30 10:03:13;;;;;;;12.18;9.13;;;;;;;13.54;74.47;100680.72;5033696;28;20061;-77
2021/04/30 10:06:01;;;;;;;11.70;8.48;;;;;;;13.71;74.74;100682.78;5032169;28;20033;-77
2021/04/30 10:08:26;;;;;;;11.20;7.90;;;;;;;13.92;73.34;100691.06;5031654;28;20029;-77
2021/04/30 10:10:52;;;;;;;11.68;7.63;;;;;;;13.85;72.77;100688.31;5026869;28;20060;-77
2021/04/30 10:13:17;;;;;;;11.82;8.63;;;;;;;14.64;71.78;100693.06;5032712;28;20047;-77
2021/04/30 10:15:43;;;;;;;9.38;7.65;;;;;;;15.14;71.61;100687.44;5013776;28;20116;-77
2021/04/30 10:18:08;;;;;;;10.38;8.20;;;;;;;15.90;65.34;100690.63;5028398;28;20495;-77
2021/04/30 10:20:34;;;;;;;13.05;7.68;;;;;;;15.41;67.86;100693.28;5014376;28;20044;-77
2021/04/30 10:23:02;;;;;;;9.02;7.07;;;;;;;15.31;67.86;100688.63;5030687;28;20037;-77
2021/04/30 10:25:29;;;;;;;12.52;6.78;;;;;;;15.56;69.39;100691.41;5032645;28;20040;-77
2021/04/30 10:27:55;;;;;;;9.05;7.55;;;;;;;15.41;63.46;100685.13;5028288;28;20045;-77
2021/04/30 10:30:24;;;;;;;8.52;7.10;;;;;;;15.43;64.91;100687.53;5012992;28;20025;-77
2021/04/30 10:33:08;;;;;;;7.95;6.28;;;;;;;15.23;65.23;100693.25;5031824;28;20030;-77
2021/04/30 10:35:44;;;;;;;10.35;6.72;;;;;;;14.85;65.94;100693.94;5012279;28;20038;-77
2021/04/30 10:38:13;;;;;;;9.00;7.40;;;;;;;14.47;68.32;100691.84;5027055;28;20627;-77
2021/04/30 10:41:11;;;;;;;8.68;7.15;;;;;;;14.29;68.53;100694.44;5030164;28;20036;-76
2021/04/30 10:43:38;;;;;;;9.93;7.18;;;;;;;14.37;67.95;100687.13;4976137;28;20069;-76
2021/04/30 10:46:13;;;;;;;10.02;8.00;;;;;;;14.72;69.61;100691.94;5021271;28;20041;-76
2021/04/30 10:49:04;;;;;;;9.55;7.07;;;;;;;14.80;67.98;100686.16;5016952;28;20052;-77
2021/04/30 10:51:30;;;;;;;;;;;;;;;14.76;68.38;100696.22;5002685;28;20148;-77
2021/04/30 10:54:25;;;;;;;9.35;7.35;;;;;;;14.69;68.93;100690.00;5021904;28;20004;-77
2021/04/30 10:57:03;;;;;;;7.90;6.93;;;;;;;14.60;67.82;100700.41;5016621;28;20041;-77
2021/04/30 10:59:36;;;;;;;10.80;7.28;;;;;;;14.27;68.17;100698.66;5019739;28;20060;-77
2021/04/30 11:02:31;;;;;;;10.05;7.15;;;;;;;14.36;68.71;100712.69;5023748;28;20033;-77
2021/04/30 11:05:15;;;;;;;10.00;7.45;;;;;;;14.34;68.81;100709.56;5018335;28;20033;-77
2021/04/30 11:07:52;;;;;;;11.88;8.13;;;;;;;14.07;68.51;100706.25;5007608;28;20029;-77
2021/04/30 11:10:20;;;;;;;11.68;8.07;;;;;;;14.09;70.21;100705.91;5000534;28;596082;-77